sensor_id;sensor_type;location;lat;lon;timestamp;P1;durP1;ratioP1;P2;durP2;ratioP2
36303;SDS011;22335;49.800;8.596;2022-12-07T00:02:19;14.60;;;12.88;;
36303;SDS011;22335;49.800;8.596;2022-12-07T00:09:05;14.35;;;12.73;;
36303;SDS011;22335;49.800;8.596;2022-12-07T00:15:56;13.43;;;12.23;;
36303;SDS011;22335;49.800;8.596;2022-12-07T00:22:46;15.45;;;12.38;;
36303;SDS011;22335;49.800;8.596;2022-12-07T00:29:31;14.27;;;13.02;;
36303;SDS011;22335;49.800;8.596;2022-12-07T00:36:21;13.95;;;12.32;;
36303;SDS011;22335;49.800;8.596;2022-12-07T00:43:08;14.18;;;12.75;;
36303;SDS011;22335;49.800;8.596;2022-12-07T00:49:53;13.77;;;12.32;;
36303;SDS011;22335;49.800;8.596;2022-12-07T00:56:42;13.37;;;12.10;;
36303;SDS011;22335;49.800;8.596;2022-12-07T01:03:27;13.73;;;12.30;;
36303;SDS011;22335;49.800;8.596;2022-12-07T01:10:14;13.07;;;11.77;;
36303;SDS011;22335;49.800;8.596;2022-12-07T01:17:02;14.52;;;12.90;;
36303;SDS011;22335;49.800;8.596;2022-12-07T01:23:48;14.82;;;13.43;;
36303;SDS011;22335;49.800;8.596;2022-12-07T01:30:34;15.52;;;12.73;;
36303;SDS011;22335;49.800;8.596;2022-12-07T01:37:22;14.13;;;12.65;;
36303;SDS011;22335;49.800;8.596;2022-12-07T01:44:15;14.93;;;13.05;;
36303;SDS011;22335;49.800;8.596;2022-12-07T01:51:05;13.77;;;12.37;;
36303;SDS011;22335;49.800;8.596;2022-12-07T01:57:57;14.30;;;12.80;;
36303;SDS011;22335;49.800;8.596;2022-12-07T02:04:43;13.65;;;12.38;;
36303;SDS011;22335;49.800;8.596;2022-12-07T02:11:28;12.73;;;11.52;;
36303;SDS011;22335;49.800;8.596;2022-12-07T02:18:18;14.38;;;12.65;;
36303;SDS011;22335;49.800;8.596;2022-12-07T02:25:20;16.38;;;13.27;;
36303;SDS011;22335;49.800;8.596;2022-12-07T02:32:18;15.13;;;13.52;;
36303;SDS011;22335;49.800;8.596;2022-12-07T02:39:11;14.98;;;13.48;;
36303;SDS011;22335;49.800;8.596;2022-12-07T02:46:04;14.90;;;13.25;;
36303;SDS011;22335;49.800;8.596;2022-12-07T02:52:55;15.68;;;14.05;;
36303;SDS011;22335;49.800;8.596;2022-12-07T02:59:44;15.07;;;13.45;;
36303;SDS011;22335;49.800;8.596;2022-12-07T03:06:47;14.27;;;12.82;;
36303;SDS011;22335;49.800;8.596;2022-12-07T03:13:41;15.55;;;14.00;;
36303;SDS011;22335;49.800;8.596;2022-12-07T03:20:32;15.93;;;14.18;;
36303;SDS011;22335;49.800;8.596;2022-12-07T03:27:22;15.90;;;14.30;;
36303;SDS011;22335;49.800;8.596;2022-12-07T03:34:14;16.05;;;14.50;;
36303;SDS011;22335;49.800;8.596;2022-12-07T03:41:06;16.60;;;14.90;;
36303;SDS011;22335;49.800;8.596;2022-12-07T04:01:54;19.20;;;14.13;;
36303;SDS011;22335;49.800;8.596;2022-12-07T04:08:43;15.55;;;13.95;;
36303;SDS011;22335;49.800;8.596;2022-12-07T04:15:28;16.38;;;13.80;;
36303;SDS011;22335;49.800;8.596;2022-12-07T04:22:17;14.85;;;13.35;;
36303;SDS011;22335;49.800;8.596;2022-12-07T04:29:02;16.67;;;14.10;;
36303;SDS011;22335;49.800;8.596;2022-12-07T04:35:48;15.75;;;14.10;;
36303;SDS011;22335;49.800;8.596;2022-12-07T04:42:36;17.00;;;15.10;;
36303;SDS011;22335;49.800;8.596;2022-12-07T04:49:22;19.80;;;14.38;;
36303;SDS011;22335;49.800;8.596;2022-12-07T04:56:08;18.63;;;14.20;;
36303;SDS011;22335;49.800;8.596;2022-12-07T05:02:57;16.27;;;14.45;;
36303;SDS011;22335;49.800;8.596;2022-12-07T05:09:42;15.43;;;13.82;;
36303;SDS011;22335;49.800;8.596;2022-12-07T05:16:28;15.02;;;13.57;;
36303;SDS011;22335;49.800;8.596;2022-12-07T05:23:17;17.30;;;13.77;;
36303;SDS011;22335;49.800;8.596;2022-12-07T05:30:03;15.27;;;13.68;;
36303;SDS011;22335;49.800;8.596;2022-12-07T05:36:51;15.10;;;13.52;;
36303;SDS011;22335;49.800;8.596;2022-12-07T05:43:39;15.48;;;13.82;;
36303;SDS011;22335;49.800;8.596;2022-12-07T05:50:24;15.15;;;13.55;;
36303;SDS011;22335;49.800;8.596;2022-12-07T05:57:15;15.05;;;13.48;;
36303;SDS011;22335;49.800;8.596;2022-12-07T06:04:04;14.60;;;13.13;;
36303;SDS011;22335;49.800;8.596;2022-12-07T06:10:49;17.60;;;14.05;;
36303;SDS011;22335;49.800;8.596;2022-12-07T06:17:55;16.05;;;13.45;;
36303;SDS011;22335;49.800;8.596;2022-12-07T06:24:43;14.65;;;13.15;;
36303;SDS011;22335;49.800;8.596;2022-12-07T06:31:29;15.80;;;14.07;;
36303;SDS011;22335;49.800;8.596;2022-12-07T06:38:15;15.32;;;13.57;;
36303;SDS011;22335;49.800;8.596;2022-12-07T06:45:03;16.80;;;13.77;;
36303;SDS011;22335;49.800;8.596;2022-12-07T06:51:50;14.57;;;13.07;;
36303;SDS011;22335;49.800;8.596;2022-12-07T06:58:35;15.95;;;13.85;;
36303;SDS011;22335;49.800;8.596;2022-12-07T07:05:23;15.75;;;13.75;;
36303;SDS011;22335;49.800;8.596;2022-12-07T07:12:09;15.65;;;13.73;;
36303;SDS011;22335;49.800;8.596;2022-12-07T07:18:54;14.15;;;12.65;;
36303;SDS011;22335;49.800;8.596;2022-12-07T07:25:42;15.65;;;13.98;;
36303;SDS011;22335;49.800;8.596;2022-12-07T07:32:28;17.08;;;14.25;;
36303;SDS011;22335;49.800;8.596;2022-12-07T07:39:14;15.63;;;13.82;;
36303;SDS011;22335;49.800;8.596;2022-12-07T07:46:02;15.50;;;14.05;;
36303;SDS011;22335;49.800;8.596;2022-12-07T07:52:48;16.30;;;13.75;;
36303;SDS011;22335;49.800;8.596;2022-12-07T07:59:34;16.27;;;14.07;;
36303;SDS011;22335;49.800;8.596;2022-12-07T08:06:22;16.08;;;14.45;;
36303;SDS011;22335;49.800;8.596;2022-12-07T08:13:13;17.08;;;14.35;;
36303;SDS011;22335;49.800;8.596;2022-12-07T08:20:00;16.85;;;14.48;;
36303;SDS011;22335;49.800;8.596;2022-12-07T08:26:49;15.35;;;13.75;;
36303;SDS011;22335;49.800;8.596;2022-12-07T08:33:34;16.25;;;14.13;;
36303;SDS011;22335;49.800;8.596;2022-12-07T08:40:20;16.67;;;14.95;;
36303;SDS011;22335;49.800;8.596;2022-12-07T08:47:08;15.48;;;13.98;;
36303;SDS011;22335;49.800;8.596;2022-12-07T08:53:55;16.20;;;14.50;;
36303;SDS011;22335;49.800;8.596;2022-12-07T09:00:43;15.77;;;14.05;;
36303;SDS011;22335;49.800;8.596;2022-12-07T09:07:31;16.50;;;14.30;;
36303;SDS011;22335;49.800;8.596;2022-12-07T09:14:18;16.15;;;14.50;;
36303;SDS011;22335;49.800;8.596;2022-12-07T09:21:04;17.33;;;14.85;;
36303;SDS011;22335;49.800;8.596;2022-12-07T09:27:57;17.13;;;14.63;;
36303;SDS011;22335;49.800;8.596;2022-12-07T09:34:43;16.80;;;15.10;;
36303;SDS011;22335;49.800;8.596;2022-12-07T09:41:29;18.40;;;14.98;;
36303;SDS011;22335;49.800;8.596;2022-12-07T09:48:19;18.13;;;15.40;;
36303;SDS011;22335;49.800;8.596;2022-12-07T09:55:09;19.95;;;15.23;;
36303;SDS011;22335;49.800;8.596;2022-12-07T10:02:02;17.17;;;15.30;;
36303;SDS011;22335;49.800;8.596;2022-12-07T10:09:13;18.50;;;15.80;;
36303;SDS011;22335;49.800;8.596;2022-12-07T10:16:00;16.85;;;14.93;;
36303;SDS011;22335;49.800;8.596;2022-12-07T10:22:55;18.83;;;14.63;;
36303;SDS011;22335;49.800;8.596;2022-12-07T10:29:50;16.40;;;14.70;;
36303;SDS011;22335;49.800;8.596;2022-12-07T10:36:39;16.55;;;14.93;;
36303;SDS011;22335;49.800;8.596;2022-12-07T10:43:24;17.42;;;15.48;;
36303;SDS011;22335;49.800;8.596;2022-12-07T10:57:40;17.53;;;15.10;;
36303;SDS011;22335;49.800;8.596;2022-12-07T11:04:43;16.13;;;14.37;;
36303;SDS011;22335;49.800;8.596;2022-12-07T11:11:48;15.07;;;13.48;;
36303;SDS011;22335;49.800;8.596;2022-12-07T11:18:45;13.50;;;11.93;;
36303;SDS011;22335;49.800;8.596;2022-12-07T11:25:49;12.57;;;11.35;;
36303;SDS011;22335;49.800;8.596;2022-12-07T11:32:56;13.50;;;10.52;;
36303;SDS011;22335;49.800;8.596;2022-12-07T11:39:56;15.45;;;13.52;;
36303;SDS011;22335;49.800;8.596;2022-12-07T11:46:47;17.58;;;13.85;;
36303;SDS011;22335;49.800;8.596;2022-12-07T11:53:41;14.57;;;12.93;;
36303;SDS011;22335;49.800;8.596;2022-12-07T12:00:33;14.98;;;13.43;;
36303;SDS011;22335;49.800;8.596;2022-12-07T12:07:21;15.15;;;13.07;;
36303;SDS011;22335;49.800;8.596;2022-12-07T12:14:43;15.88;;;14.25;;
36303;SDS011;22335;49.800;8.596;2022-12-07T12:21:39;15.68;;;14.05;;
36303;SDS011;22335;49.800;8.596;2022-12-07T12:28:27;14.30;;;12.63;;
36303;SDS011;22335;49.800;8.596;2022-12-07T12:35:27;13.55;;;12.20;;
36303;SDS011;22335;49.800;8.596;2022-12-07T12:42:17;15.20;;;13.88;;
36303;SDS011;22335;49.800;8.596;2022-12-07T12:56:46;8.02;;;7.05;;
36303;SDS011;22335;49.800;8.596;2022-12-07T13:03:37;8.02;;;7.47;;
36303;SDS011;22335;49.800;8.596;2022-12-07T13:24:48;6.97;;;6.38;;
36303;SDS011;22335;49.800;8.596;2022-12-07T13:31:34;7.68;;;6.93;;
36303;SDS011;22335;49.800;8.596;2022-12-07T13:38:27;7.15;;;6.63;;
36303;SDS011;22335;49.800;8.596;2022-12-07T13:45:20;7.00;;;6.38;;
36303;SDS011;22335;49.800;8.596;2022-12-07T13:52:30;14.93;;;13.65;;
36303;SDS011;22335;49.800;8.596;2022-12-07T13:59:19;14.63;;;13.50;;
36303;SDS011;22335;49.800;8.596;2022-12-07T14:13:22;10.07;;;7.82;;
36303;SDS011;22335;49.800;8.596;2022-12-07T14:27:21;7.45;;;6.75;;
36303;SDS011;22335;49.800;8.596;2022-12-07T14:34:12;8.52;;;6.30;;
36303;SDS011;22335;49.800;8.596;2022-12-07T14:41:01;6.90;;;6.30;;
36303;SDS011;22335;49.800;8.596;2022-12-07T14:47:59;8.77;;;7.97;;
36303;SDS011;22335;49.800;8.596;2022-12-07T14:55:07;28.27;;;25.60;;
36303;SDS011;22335;49.800;8.596;2022-12-07T15:02:03;13.32;;;12.32;;
36303;SDS011;22335;49.800;8.596;2022-12-07T15:08:49;8.88;;;8.00;;
36303;SDS011;22335;49.800;8.596;2022-12-07T15:15:34;8.52;;;7.43;;
36303;SDS011;22335;49.800;8.596;2022-12-07T15:22:22;8.50;;;7.80;;
36303;SDS011;22335;49.800;8.596;2022-12-07T15:29:08;7.00;;;6.50;;
36303;SDS011;22335;49.800;8.596;2022-12-07T15:36:03;6.65;;;6.20;;
36303;SDS011;22335;49.800;8.596;2022-12-07T15:42:51;6.80;;;6.30;;
36303;SDS011;22335;49.800;8.596;2022-12-07T15:49:37;6.95;;;6.45;;
36303;SDS011;22335;49.800;8.596;2022-12-07T15:56:23;9.20;;;6.90;;
36303;SDS011;22335;49.800;8.596;2022-12-07T16:03:11;7.38;;;6.90;;
36303;SDS011;22335;49.800;8.596;2022-12-07T16:09:56;8.20;;;7.57;;
36303;SDS011;22335;49.800;8.596;2022-12-07T16:16:42;8.20;;;7.40;;
36303;SDS011;22335;49.800;8.596;2022-12-07T16:23:30;7.68;;;6.90;;
36303;SDS011;22335;49.800;8.596;2022-12-07T16:30:16;7.80;;;7.20;;
36303;SDS011;22335;49.800;8.596;2022-12-07T16:37:01;7.80;;;7.05;;
36303;SDS011;22335;49.800;8.596;2022-12-07T16:43:49;7.40;;;6.80;;
36303;SDS011;22335;49.800;8.596;2022-12-07T16:50:36;7.55;;;7.05;;
36303;SDS011;22335;49.800;8.596;2022-12-07T16:57:31;7.20;;;6.70;;
36303;SDS011;22335;49.800;8.596;2022-12-07T17:04:19;7.63;;;7.05;;
36303;SDS011;22335;49.800;8.596;2022-12-07T17:11:08;7.28;;;6.60;;
36303;SDS011;22335;49.800;8.596;2022-12-07T17:17:57;7.60;;;7.10;;
36303;SDS011;22335;49.800;8.596;2022-12-07T17:24:45;7.68;;;7.07;;
36303;SDS011;22335;49.800;8.596;2022-12-07T17:31:31;7.90;;;7.20;;
36303;SDS011;22335;49.800;8.596;2022-12-07T17:38:17;7.60;;;7.00;;
36303;SDS011;22335;49.800;8.596;2022-12-07T17:45:05;7.72;;;7.13;;
36303;SDS011;22335;49.800;8.596;2022-12-07T17:51:53;8.75;;;8.07;;
36303;SDS011;22335;49.800;8.596;2022-12-07T17:58:52;9.15;;;8.45;;
36303;SDS011;22335;49.800;8.596;2022-12-07T18:05:41;8.35;;;7.70;;
36303;SDS011;22335;49.800;8.596;2022-12-07T18:12:29;11.30;;;9.23;;
36303;SDS011;22335;49.800;8.596;2022-12-07T18:19:15;11.00;;;9.95;;
36303;SDS011;22335;49.800;8.596;2022-12-07T18:26:03;10.40;;;9.38;;
36303;SDS011;22335;49.800;8.596;2022-12-07T18:32:50;10.55;;;9.80;;
36303;SDS011;22335;49.800;8.596;2022-12-07T18:39:35;11.80;;;10.63;;
36303;SDS011;22335;49.800;8.596;2022-12-07T18:46:23;11.90;;;10.65;;
36303;SDS011;22335;49.800;8.596;2022-12-07T18:53:09;12.02;;;10.82;;
36303;SDS011;22335;49.800;8.596;2022-12-07T18:59:54;12.23;;;11.10;;
36303;SDS011;22335;49.800;8.596;2022-12-07T19:06:45;11.75;;;10.68;;
36303;SDS011;22335;49.800;8.596;2022-12-07T19:13:33;13.80;;;11.18;;
36303;SDS011;22335;49.800;8.596;2022-12-07T19:20:18;11.20;;;10.25;;
36303;SDS011;22335;49.800;8.596;2022-12-07T19:27:07;12.60;;;11.30;;
36303;SDS011;22335;49.800;8.596;2022-12-07T19:33:52;12.07;;;10.90;;
36303;SDS011;22335;49.800;8.596;2022-12-07T19:40:38;11.93;;;10.75;;
36303;SDS011;22335;49.800;8.596;2022-12-07T19:47:26;12.18;;;11.07;;
36303;SDS011;22335;49.800;8.596;2022-12-07T19:54:12;13.55;;;12.18;;
36303;SDS011;22335;49.800;8.596;2022-12-07T20:01:01;13.25;;;11.93;;
36303;SDS011;22335;49.800;8.596;2022-12-07T20:07:49;12.70;;;11.55;;
36303;SDS011;22335;49.800;8.596;2022-12-07T20:14:35;13.65;;;12.27;;
36303;SDS011;22335;49.800;8.596;2022-12-07T20:21:21;13.20;;;11.88;;
36303;SDS011;22335;49.800;8.596;2022-12-07T20:28:11;14.05;;;12.60;;
36303;SDS011;22335;49.800;8.596;2022-12-07T20:34:56;14.20;;;12.82;;
36303;SDS011;22335;49.800;8.596;2022-12-07T20:41:43;15.25;;;13.50;;
36303;SDS011;22335;49.800;8.596;2022-12-07T20:48:46;15.70;;;14.18;;
36303;SDS011;22335;49.800;8.596;2022-12-07T20:55:31;15.98;;;14.30;;
36303;SDS011;22335;49.800;8.596;2022-12-07T21:02:17;17.35;;;15.18;;
36303;SDS011;22335;49.800;8.596;2022-12-07T21:09:05;18.23;;;16.08;;
36303;SDS011;22335;49.800;8.596;2022-12-07T21:15:52;18.05;;;16.25;;
36303;SDS011;22335;49.800;8.596;2022-12-07T21:22:40;18.67;;;16.65;;
36303;SDS011;22335;49.800;8.596;2022-12-07T21:29:28;19.73;;;17.55;;
36303;SDS011;22335;49.800;8.596;2022-12-07T21:36:24;21.92;;;17.65;;
36303;SDS011;22335;49.800;8.596;2022-12-07T21:43:10;21.60;;;17.93;;
36303;SDS011;22335;49.800;8.596;2022-12-07T21:49:58;19.17;;;17.08;;
36303;SDS011;22335;49.800;8.596;2022-12-07T21:56:44;19.55;;;17.15;;
36303;SDS011;22335;49.800;8.596;2022-12-07T22:03:29;20.23;;;17.80;;
36303;SDS011;22335;49.800;8.596;2022-12-07T22:10:17;22.83;;;17.98;;
36303;SDS011;22335;49.800;8.596;2022-12-07T22:17:11;20.92;;;18.48;;
36303;SDS011;22335;49.800;8.596;2022-12-07T22:23:56;19.65;;;17.67;;
36303;SDS011;22335;49.800;8.596;2022-12-07T22:30:45;22.38;;;18.23;;
36303;SDS011;22335;49.800;8.596;2022-12-07T22:37:31;21.58;;;19.27;;
36303;SDS011;22335;49.800;8.596;2022-12-07T22:44:16;22.23;;;18.88;;
36303;SDS011;22335;49.800;8.596;2022-12-07T22:51:05;26.02;;;20.05;;
36303;SDS011;22335;49.800;8.596;2022-12-07T22:57:52;23.92;;;20.08;;
36303;SDS011;22335;49.800;8.596;2022-12-07T23:04:37;24.08;;;19.55;;
36303;SDS011;22335;49.800;8.596;2022-12-07T23:11:26;21.02;;;18.77;;
36303;SDS011;22335;49.800;8.596;2022-12-07T23:18:27;21.77;;;19.55;;
36303;SDS011;22335;49.800;8.596;2022-12-07T23:25:13;29.55;;;20.50;;
36303;SDS011;22335;49.800;8.596;2022-12-07T23:32:01;25.27;;;21.20;;
36303;SDS011;22335;49.800;8.596;2022-12-07T23:38:47;25.83;;;20.55;;
36303;SDS011;22335;49.800;8.596;2022-12-07T23:45:34;24.20;;;19.60;;
36303;SDS011;22335;49.800;8.596;2022-12-07T23:52:22;27.08;;;20.70;;
36303;SDS011;22335;49.800;8.596;2022-12-07T23:59:08;24.10;;;20.80;;
